asmreekasounds.com alexa rank chart, asmreekasounds.com alexa rank daily changes

asmreekasounds.com alexa rank chart, asmreekasounds.com alexa rank daily changes

asmreekasounds.com
Actual rank:
722 850

RANK HISTORY

Date Rank Diff
2016/12/05 722 850 -43 957
2016/12/04 766 807 -53 862
2016/12/02 820 669 -9 729
2016/12/01 830 398 -43 895
2016/11/30 874 293 -6 726
2016/11/29 881 019 +1 199
2016/11/28 879 820 +28 289
2016/11/27 851 531 +31 413
2016/11/26 820 118 -116 430
2016/11/25 936 548 +85 482
2016/11/24 851 066 -13 524
2016/11/23 864 590 -95 451
2016/11/18 960 041 -20 138
2016/11/17 980 179 +278
2016/11/15 979 901 -11 104
2016/11/14 991 005 +15 049
2016/11/02 975 956 +51 481
2016/11/01 924 475 -5 175
2016/10/31 929 650 -18 631
2016/10/30 948 281 -16 913
2016/10/29 965 194 +56 403
2016/10/28 908 791 -43 939
2016/10/27 952 730 +5 070
2016/10/24 947 660 +119 117
2016/10/23 828 543 +340
2016/10/22 828 203 +26 407
2016/10/21 801 796 +526
2016/10/20 801 270 +4 783
2016/10/19 796 487 -26 115
2016/10/18 822 602 +32 833
2016/10/17 789 769 -931
2016/10/16 790 700 +32 695
2016/10/15 758 005 +277 495
2016/10/14 480 510 -49 013
2016/10/13 529 523 -48 333
2016/10/12 577 856 +5 062
2016/10/11 572 794 -10 199
2016/10/10 582 993 +3 621
2016/10/09 579 372 +15 386
2016/10/08 563 986 -36 275
2016/10/07 600 261 +55 876
2016/10/06 544 385

WIDGET FOR YOUR SITE

DOMAINS WITH THE NEAREST RANK

Domain Rank
hentairank.com 722 845
doinet.co.jp 722 846
templates4internet.com 722 847
slopenyourwindow.ru 722 848
mycayuga.ca 722 849
asmreekasounds.com 722 850
augeninfo.de 722 851
oportaldasempresas.com 722 852
blog-ebay.ru 722 853
hscode.co.kr 722 854
casseycds.net 722 855

DOMAINS WITH THE NEAREST RANK BY TLD .com

Domain Rank
masterful-magazine.com 722 839
enduroc.com 722 843
skimatalk.com 722 844
hentairank.com 722 845
templates4internet.com 722 847
asmreekasounds.com 722 850
oportaldasempresas.com 722 852
clubesolitarios.com 722 857
thegeeksclub.com 722 858
omgilikethis.com 722 861
expressmedals.com 722 862